createdAt,value
2022-11-20T00:01:26.153Z,0.50
2022-11-20T00:03:54.528Z,0.40
2022-11-20T00:06:22.503Z,0.50
2022-11-20T00:08:49.499Z,0.50
2022-11-20T00:11:21.430Z,0.50
2022-11-20T00:13:50.354Z,0.30
2022-11-20T00:16:20.122Z,0.40
2022-11-20T00:18:47.442Z,0.30
2022-11-20T00:21:16.966Z,0.40
2022-11-20T00:23:44.596Z,0.30
2022-11-20T00:26:13.931Z,0.30
2022-11-20T00:28:41.040Z,0.20
2022-11-20T00:31:15.775Z,0.30
2022-11-20T00:33:44.374Z,0.20
2022-11-20T00:36:19.662Z,0.20
2022-11-20T00:38:46.767Z,0.40
2022-11-20T00:41:17.258Z,0.30
2022-11-20T00:43:44.573Z,0.40
2022-11-20T00:46:15.454Z,0.30
2022-11-20T00:48:43.080Z,0.30
2022-11-20T00:51:12.141Z,0.20
2022-11-20T00:53:38.975Z,0.30
2022-11-20T00:56:08.373Z,0.30
2022-11-20T00:58:40.372Z,0.30
2022-11-20T01:01:21.898Z,0.30
2022-11-20T01:03:50.985Z,0.00
2022-11-20T01:06:33.668Z,0.00
2022-11-20T01:09:04.137Z,0.10
2022-11-20T01:11:33.657Z,0.10
2022-11-20T01:14:01.956Z,0.00
2022-11-20T01:16:33.308Z,0.00
2022-11-20T01:19:02.334Z,0.10
2022-11-20T01:21:31.512Z,0.00
2022-11-20T01:23:59.385Z,0.20
2022-11-20T01:26:29.173Z,0.10
2022-11-20T01:28:56.928Z,0.00
2022-11-20T01:31:26.761Z,0.10
2022-11-20T01:33:56.867Z,0.10
2022-11-20T01:36:26.212Z,0.10
2022-11-20T01:38:55.369Z,0.20
2022-11-20T01:41:42.058Z,0.20
2022-11-20T01:44:13.263Z,0.40
2022-11-20T01:46:46.419Z,0.30
2022-11-20T01:49:15.942Z,0.20
2022-11-20T01:51:47.940Z,0.10
2022-11-20T01:54:20.576Z,0.20
2022-11-20T01:56:49.162Z,0.20
2022-11-20T01:59:20.545Z,0.20
2022-11-20T02:01:48.007Z,0.40
2022-11-20T02:04:16.432Z,0.40
2022-11-20T02:06:50.732Z,0.50
2022-11-20T02:09:18.059Z,0.40
2022-11-20T02:11:45.039Z,0.40
2022-11-20T02:14:12.460Z,0.40
2022-11-20T02:16:45.023Z,0.40
2022-11-20T02:19:28.043Z,0.50
2022-11-20T02:24:27.105Z,0.40
2022-11-20T02:27:08.701Z,0.30
2022-11-20T02:29:52.981Z,0.30
2022-11-20T02:32:25.289Z,0.50
2022-11-20T02:34:52.164Z,0.40
2022-11-20T02:37:20.530Z,0.50
2022-11-20T02:39:49.846Z,0.50
2022-11-20T02:42:16.917Z,0.50
2022-11-20T02:44:43.936Z,0.50
2022-11-20T02:47:11.190Z,0.70
2022-11-20T02:49:37.952Z,0.70
2022-11-20T02:52:04.894Z,0.70
2022-11-20T02:54:32.357Z,0.60
2022-11-20T02:56:59.318Z,0.60
2022-11-20T02:59:26.245Z,0.60
2022-11-20T10:29:17.745Z,0.70
2022-11-20T10:31:51.478Z,4.00
2022-11-20T10:34:58.353Z,3.90
2022-11-20T10:37:27.169Z,4.00
2022-11-20T10:40:11.522Z,4.10
2022-11-20T10:42:48.197Z,4.10
2022-11-20T10:45:23.876Z,4.10
2022-11-20T10:47:51.696Z,4.20
2022-11-20T10:50:22.648Z,4.20
2022-11-20T10:53:07.616Z,4.30
2022-11-20T10:55:39.966Z,4.20
2022-11-20T10:58:12.588Z,4.10
2022-11-20T11:00:39.519Z,4.20
2022-11-20T11:03:29.604Z,4.30
2022-11-20T11:06:18.233Z,4.20
2022-11-20T11:08:45.765Z,4.30
2022-11-20T11:11:33.558Z,4.30
2022-11-20T11:14:16.584Z,4.30
2022-11-20T11:16:57.977Z,4.20
2022-11-20T11:19:25.742Z,4.20
2022-11-20T11:21:57.583Z,4.30
2022-11-20T11:24:42.396Z,4.30
2022-11-20T11:27:18.814Z,4.30
2022-11-20T11:29:46.961Z,4.30
2022-11-20T11:32:15.018Z,4.40
2022-11-20T11:34:44.756Z,4.40
2022-11-20T11:37:35.748Z,4.50
2022-11-20T11:43:02.246Z,4.40
2022-11-20T11:45:29.765Z,4.50
2022-11-20T11:48:01.294Z,4.50
2022-11-20T11:50:30.002Z,4.50
2022-11-20T11:53:16.749Z,4.60
2022-11-20T11:55:49.237Z,4.60
2022-11-20T11:58:43.135Z,4.70
2022-11-20T12:01:25.451Z,4.70
2022-11-20T12:04:29.786Z,4.70
2022-11-20T12:07:24.290Z,4.70
2022-11-20T12:09:55.661Z,4.70
2022-11-20T12:12:31.096Z,4.70
2022-11-20T12:14:59.397Z,4.70
2022-11-20T12:17:26.059Z,4.70
2022-11-20T12:19:52.847Z,4.70
2022-11-20T12:22:43.137Z,4.60
2022-11-20T12:25:20.655Z,4.70
2022-11-20T12:27:53.228Z,4.70
2022-11-20T12:30:21.228Z,4.80
2022-11-20T12:33:01.579Z,4.90
2022-11-20T12:35:55.517Z,4.90
2022-11-20T12:38:49.459Z,4.90
2022-11-20T12:41:40.892Z,5.00
2022-11-20T12:45:10.660Z,5.10
2022-11-20T12:47:59.765Z,5.00
2022-11-20T12:51:08.023Z,4.90
2022-11-20T12:53:36.033Z,4.90
2022-11-20T12:56:24.314Z,4.90
2022-11-20T12:59:23.195Z,4.90
2022-11-20T13:02:06.637Z,5.00
2022-11-20T13:04:45.560Z,5.00
2022-11-20T13:07:16.179Z,5.00
2022-11-20T13:09:49.445Z,5.00
2022-11-20T13:12:32.683Z,5.00
2022-11-20T13:15:21.204Z,4.90
2022-11-20T13:17:59.272Z,4.90
2022-11-20T13:20:26.160Z,4.90
2022-11-20T13:22:58.313Z,4.90
2022-11-20T13:25:31.206Z,4.90
2022-11-20T13:28:04.874Z,4.90
2022-11-20T13:30:32.439Z,5.00
2022-11-20T13:33:13.108Z,4.90
2022-11-20T13:35:43.860Z,4.90
2022-11-20T13:38:13.765Z,4.90
2022-11-20T13:40:55.841Z,4.90
2022-11-20T13:43:45.545Z,4.90
2022-11-20T13:46:12.567Z,4.90
2022-11-20T13:48:47.693Z,4.90
2022-11-20T13:51:45.511Z,4.90
2022-11-20T13:54:52.780Z,4.90
2022-11-20T13:57:19.414Z,4.90
2022-11-20T14:00:21.970Z,4.90
2022-11-20T14:03:07.025Z,4.90
2022-11-20T14:05:49.451Z,4.90
2022-11-20T14:08:28.423Z,4.90
2022-11-20T14:11:19.962Z,4.90
2022-11-20T14:14:22.082Z,4.90
2022-11-20T14:16:50.539Z,4.90
2022-11-20T14:19:31.807Z,4.90
2022-11-20T14:22:14.885Z,4.90
2022-11-20T14:24:41.553Z,4.90
2022-11-20T14:27:22.234Z,4.90
2022-11-20T14:29:51.217Z,4.80
2022-11-20T14:32:25.949Z,4.80
2022-11-20T14:34:52.807Z,4.90
2022-11-20T14:37:33.117Z,4.90
2022-11-20T14:39:59.964Z,5.00
2022-11-20T14:42:28.544Z,5.00
2022-11-20T14:45:00.049Z,4.90
2022-11-20T14:47:31.879Z,4.90
2022-11-20T14:50:02.655Z,4.90
2022-11-20T14:52:32.531Z,4.90
2022-11-20T14:55:00.657Z,4.90
2022-11-20T14:57:33.593Z,5.00
2022-11-20T15:00:12.505Z,4.90
2022-11-20T15:02:50.876Z,4.90
2022-11-20T15:05:20.309Z,4.90
2022-11-20T15:07:49.714Z,4.90
2022-11-20T15:10:23.971Z,4.90
2022-11-20T15:13:06.004Z,5.00
2022-11-20T15:15:49.886Z,5.00
2022-11-20T15:18:34.099Z,5.00
2022-11-20T15:21:10.976Z,4.90
2022-11-20T15:23:37.682Z,4.90
2022-11-20T15:26:08.413Z,4.90
2022-11-20T15:28:44.122Z,4.90
2022-11-20T15:31:15.365Z,4.90
2022-11-20T15:33:44.513Z,4.90
2022-11-20T15:36:11.364Z,5.00
2022-11-20T15:38:38.341Z,5.00
2022-11-20T15:41:05.324Z,4.90
2022-11-20T15:43:32.246Z,4.90
2022-11-20T15:46:07.777Z,4.90
2022-11-20T15:48:47.865Z,4.90
2022-11-20T15:51:31.806Z,4.90
2022-11-20T15:53:59.296Z,4.90
2022-11-20T15:56:27.011Z,5.00
2022-11-20T15:58:54.198Z,5.00
2022-11-20T16:01:23.230Z,5.00
2022-11-20T16:03:50.509Z,4.90
2022-11-20T16:06:17.297Z,4.90
2022-11-20T16:08:44.699Z,4.90
2022-11-20T16:11:16.974Z,4.90
2022-11-20T16:14:02.381Z,5.00
2022-11-20T16:16:37.891Z,5.00
2022-11-20T16:19:05.247Z,5.00
2022-11-20T16:21:32.704Z,5.00
2022-11-20T16:24:04.313Z,4.90
2022-11-20T16:26:32.406Z,5.00
2022-11-20T16:29:03.813Z,5.00
2022-11-20T16:31:31.613Z,5.00
2022-11-20T16:34:00.340Z,5.00
2022-11-20T16:36:34.597Z,5.00
2022-11-20T16:39:05.552Z,5.00
2022-11-20T16:41:34.477Z,4.90
2022-11-20T16:44:03.740Z,5.00
2022-11-20T16:46:32.569Z,5.00
2022-11-20T16:49:01.316Z,5.00
2022-11-20T16:51:29.751Z,5.00
2022-11-20T16:53:56.949Z,5.00
2022-11-20T16:56:27.716Z,5.10
2022-11-20T16:58:57.102Z,5.10
2022-11-20T17:01:25.508Z,5.10
2022-11-20T17:04:06.103Z,5.10
2022-11-20T17:06:35.747Z,5.10
2022-11-20T17:09:03.386Z,5.10
2022-11-20T17:11:30.122Z,5.30
2022-11-20T17:13:57.940Z,5.20
2022-11-20T17:16:25.119Z,5.20
2022-11-20T17:18:58.181Z,5.20
2022-11-20T17:21:29.608Z,5.20
2022-11-20T17:23:56.360Z,5.20
2022-11-20T17:26:24.335Z,5.20
2022-11-20T17:29:10.130Z,5.20
2022-11-20T17:31:40.646Z,5.20
2022-11-20T17:34:11.067Z,5.30
2022-11-20T17:36:45.071Z,5.30
2022-11-20T17:39:14.636Z,5.30
2022-11-20T17:41:41.632Z,5.40
2022-11-20T17:44:13.906Z,5.40
2022-11-20T17:46:41.270Z,5.40
2022-11-20T17:49:08.395Z,5.40
2022-11-20T17:51:36.140Z,5.40
2022-11-20T17:54:07.760Z,5.40
2022-11-20T17:56:55.128Z,5.40
2022-11-20T17:59:22.481Z,5.50
2022-11-20T18:01:49.488Z,5.50
2022-11-20T18:04:16.808Z,5.50
2022-11-20T18:06:43.952Z,5.50
2022-11-20T18:09:10.805Z,5.60
2022-11-20T18:11:40.435Z,5.50
2022-11-20T18:14:34.713Z,5.60
2022-11-20T18:17:02.854Z,5.60
2022-11-20T18:19:38.908Z,5.70
2022-11-20T18:22:09.342Z,5.70
2022-11-20T18:24:37.238Z,5.70
2022-11-20T18:27:05.724Z,5.70
2022-11-20T18:29:32.617Z,5.80
2022-11-20T18:32:00.534Z,5.80
2022-11-20T18:34:27.848Z,5.80
2022-11-20T18:36:54.516Z,5.80
2022-11-20T18:39:21.752Z,5.80
2022-11-20T18:42:07.352Z,5.80
2022-11-20T18:44:53.551Z,5.80
2022-11-20T18:47:27.762Z,5.90
2022-11-20T18:49:57.179Z,5.90
2022-11-20T18:52:33.757Z,6.00
2022-11-20T18:55:05.075Z,6.00
2022-11-20T18:57:31.979Z,6.00
2022-11-20T19:00:08.416Z,6.00
2022-11-20T19:02:41.752Z,6.00
2022-11-20T19:05:10.510Z,6.10
2022-11-20T19:07:37.252Z,6.10
2022-11-20T19:10:05.177Z,6.10
2022-11-20T19:12:32.264Z,6.10
2022-11-20T19:14:58.938Z,6.10
2022-11-20T19:17:25.626Z,6.20
2022-11-20T19:19:54.816Z,6.20
2022-11-20T19:22:21.778Z,6.20
2022-11-20T19:24:49.227Z,6.20
2022-11-20T19:27:16.029Z,6.30
2022-11-20T19:29:42.785Z,6.30
2022-11-20T19:32:09.596Z,6.40
2022-11-20T19:34:36.323Z,6.50
2022-11-20T19:41:57.575Z,6.60
2022-11-20T19:44:24.304Z,7.00
2022-11-20T19:46:50.999Z,7.00
2022-11-20T19:49:17.736Z,7.10
